Time;durP1;ratioP1;P1;durP2;ratioP2;P2;SDS_P1;SDS_P2;PMS_P1;PMS_P2;Temp;Humidity;BMP_temperature;BMP_pressure;BME280_temperature;BME280_humidity;BME280_pressure;Samples;Min_cycle;Max_cycle;Signal;HPM_P1;HPM_P2
2024/01/05 00:01:07;;;;;;;20.93;16.73;;;0.30;90.60;;;;;;5036274;28;20682;-86
2024/01/05 00:03:33;;;;;;;22.77;16.47;;;0.30;90.70;;;;;;5036478;28;20207;-88
2024/01/05 00:05:58;;;;;;;27.73;18.30;;;0.30;90.70;;;;;;5036495;28;20206;-87
2024/01/05 00:08:24;;;;;;;19.23;14.67;;;0.30;90.80;;;;;;5036388;28;20177;-88
2024/01/05 00:10:49;;;;;;;17.57;15.57;;;0.30;90.80;;;;;;5036035;28;20197;-88
2024/01/05 00:13:15;;;;;;;17.60;14.53;;;0.30;90.70;;;;;;5036204;28;20255;-89
2024/01/05 00:15:40;;;;;;;17.87;15.03;;;0.30;90.60;;;;;;5036398;28;20179;-89
2024/01/05 00:18:06;;;;;;;16.33;14.43;;;0.20;90.40;;;;;;5036389;28;20185;-89
2024/01/05 00:20:32;;;;;;;19.83;13.30;;;0.20;90.40;;;;;;5035954;28;20306;-89
2024/01/05 00:22:57;;;;;;;16.27;14.10;;;0.20;90.30;;;;;;5036623;28;20196;-88
2024/01/05 00:25:23;;;;;;;17.97;15.57;;;0.20;90.20;;;;;;5036699;28;20206;-88
2024/01/05 00:27:55;;;;;;;25.07;22.83;;;0.20;90.10;;;;;;5040559;28;20171;-91
2024/01/05 00:30:20;;;;;;;26.83;24.40;;;0.20;90.10;;;;;;5041538;28;20214;-90
2024/01/05 00:32:46;;;;;;;17.47;15.40;;;0.20;89.90;;;;;;5038701;28;20179;-90
2024/01/05 00:35:12;;;;;;;16.60;14.87;;;0.20;89.90;;;;;;5038319;28;20555;-89
2024/01/05 00:37:38;;;;;;;24.23;22.03;;;0.20;90.00;;;;;;5037309;28;20190;-88
2024/01/05 00:40:04;;;;;;;26.37;24.17;;;0.20;89.90;;;;;;5036970;28;20187;-88
2024/01/05 00:42:29;;;;;;;19.13;15.27;;;0.20;89.90;;;;;;5036767;28;20186;-89
2024/01/05 00:44:55;;;;;;;15.67;14.07;;;0.20;89.90;;;;;;5038404;28;20179;-88
2024/01/05 00:47:20;;;;;;;26.70;24.50;;;0.10;89.70;;;;;;5037925;28;20176;-89
2024/01/05 00:49:46;;;;;;;26.97;24.67;;;0.20;89.70;;;;;;5036799;28;20603;-89
2024/01/05 00:52:12;;;;;;;27.93;25.57;;;0.10;89.80;;;;;;5037101;28;20178;-88
2024/01/05 00:54:38;;;;;;;27.63;25.03;;;0.20;89.80;;;;;;5038939;28;20259;-88
2024/01/05 00:57:04;;;;;;;17.17;14.63;;;0.10;89.80;;;;;;5037592;28;20213;-88
2024/01/05 00:59:30;;;;;;;19.03;15.13;;;0.20;90.00;;;;;;5035802;28;20198;-87
2024/01/05 01:01:55;;;;;;;27.20;24.73;;;0.20;89.80;;;;;;5035416;28;20189;-88
2024/01/05 01:04:21;;;;;;;29.27;26.60;;;0.20;89.80;;;;;;5035446;28;20184;-89
2024/01/05 01:06:46;;;;;;;16.10;14.40;;;0.20;89.90;;;;;;5035685;28;20201;-89
2024/01/05 01:09:12;;;;;;;15.20;13.60;;;0.30;89.90;;;;;;5035480;28;20209;-87
2024/01/05 01:11:37;;;;;;;25.70;23.40;;;0.30;89.60;;;;;;5036534;28;20171;-86
2024/01/05 01:14:03;;;;;;;28.80;26.33;;;0.20;89.60;;;;;;5035111;28;20690;-86
2024/01/05 01:16:28;;;;;;;15.90;13.67;;;0.30;89.70;;;;;;5035473;28;20278;-89
2024/01/05 01:18:54;;;;;;;16.27;14.50;;;0.20;89.50;;;;;;5035273;28;20192;-89
2024/01/05 01:21:19;;;;;;;26.47;24.23;;;0.30;89.60;;;;;;5035514;28;20218;-89
2024/01/05 01:23:45;;;;;;;28.60;25.80;;;0.20;89.50;;;;;;5036668;28;20543;-88
2024/01/05 01:26:10;;;;;;;15.07;13.47;;;0.20;89.50;;;;;;5035238;28;20183;-89
2024/01/05 01:28:36;;;;;;;13.67;12.37;;;0.30;89.50;;;;;;5034870;28;20253;-88
2024/01/05 01:31:02;;;;;;;25.53;23.10;;;0.30;89.30;;;;;;5036190;28;20196;-88
2024/01/05 01:33:27;;;;;;;26.77;24.77;;;0.30;89.40;;;;;;5035443;28;20643;-89
2024/01/05 01:35:53;;;;;;;15.53;14.03;;;0.30;89.40;;;;;;5036587;28;20187;-89
2024/01/05 01:38:18;;;;;;;14.17;12.77;;;0.30;89.50;;;;;;5034840;28;20641;-88
2024/01/05 01:40:45;;;;;;;18.23;16.67;;;0.30;89.50;;;;;;5034766;28;20204;-89
2024/01/05 01:43:22;;;;;;;25.00;22.90;;;0.30;89.70;;;;;;5034724;28;20564;-87
2024/01/05 01:45:48;;;;;;;22.67;20.97;;;0.30;89.60;;;;;;5035052;28;20197;-88
2024/01/05 01:48:16;;;;;;;23.57;21.17;;;0.30;89.60;;;;;;5035010;28;20183;-90
2024/01/05 01:50:42;;;;;;;24.80;22.60;;;0.30;89.70;;;;;;5034633;28;20206;-87
2024/01/05 01:53:08;;;;;;;13.97;12.23;;;0.30;89.70;;;;;;5035861;28;20550;-89
2024/01/05 01:55:33;;;;;;;13.20;12.03;;;0.30;89.70;;;;;;5034818;28;20180;-89
2024/01/05 01:57:59;;;;;;;25.00;22.73;;;0.30;89.70;;;;;;5034527;28;20559;-87
2024/01/05 02:00:24;;;;;;;24.60;22.73;;;0.30;89.70;;;;;;5034596;28;20549;-88
2024/01/05 02:02:53;;;;;;;26.83;24.43;;;0.30;89.80;;;;;;5034545;28;20736;-89
2024/01/05 02:05:19;;;;;;;13.53;12.30;;;0.30;89.80;;;;;;5034276;28;20201;-88
2024/01/05 02:07:45;;;;;;;14.23;12.83;;;0.30;89.90;;;;;;5034508;28;20274;-89
2024/01/05 02:10:10;;;;;;;23.60;21.60;;;0.30;90.00;;;;;;5034321;28;20644;-90
2024/01/05 02:12:36;;;;;;;26.80;24.60;;;0.30;90.00;;;;;;5034293;28;20667;-89
2024/01/05 02:15:01;;;;;;;26.43;23.97;;;0.40;90.00;;;;;;5034255;28;20266;-87
2024/01/05 02:17:31;;;;;;;15.67;13.97;;;0.30;90.00;;;;;;5033990;28;20221;-88
2024/01/05 02:19:57;;;;;;;14.00;11.23;;;0.30;90.10;;;;;;5033645;28;20238;-87
2024/01/05 02:22:26;;;;;;;24.03;22.07;;;0.30;90.10;;;;;;5034079;28;20184;-88
2024/01/05 02:24:51;;;;;;;24.40;22.00;;;0.40;90.20;;;;;;5035700;28;20224;-90
2024/01/05 02:27:17;;;;;;;25.07;23.27;;;0.40;90.20;;;;;;5033972;28;20597;-89
2024/01/05 02:29:42;;;;;;;18.70;13.20;;;0.40;90.10;;;;;;5035289;28;20214;-88
2024/01/05 02:32:08;;;;;;;12.40;11.30;;;0.40;90.10;;;;;;5034860;28;20170;-88
2024/01/05 02:34:33;;;;;;;15.23;13.27;;;0.40;90.20;;;;;;5033688;28;20174;-89
2024/01/05 02:36:59;;;;;;;13.97;12.57;;;0.40;90.20;;;;;;5033556;28;20248;-89
2024/01/05 02:39:24;;;;;;;13.70;12.43;;;0.40;90.30;;;;;;5033595;28;20200;-89
2024/01/05 02:41:50;;;;;;;12.60;11.50;;;0.40;90.30;;;;;;5033508;28;20207;-89
2024/01/05 02:44:16;;;;;;;14.67;12.53;;;0.40;90.30;;;;;;5033707;28;20280;-87
2024/01/05 02:46:41;;;;;;;12.80;11.60;;;0.40;90.40;;;;;;5033570;28;20181;-89
2024/01/05 02:49:07;;;;;;;17.70;13.87;;;0.40;90.40;;;;;;5033082;28;20298;-89
2024/01/05 02:51:32;;;;;;;12.37;11.27;;;0.40;90.30;;;;;;5034081;28;20179;-87
2024/01/05 02:53:58;;;;;;;14.33;12.93;;;0.40;90.30;;;;;;5033800;28;20228;-89
2024/01/05 02:56:23;;;;;;;15.60;12.77;;;0.50;90.40;;;;;;5033294;28;20169;-89
2024/01/05 02:58:50;;;;;;;15.27;13.57;;;0.40;90.40;;;;;;5033875;28;20214;-89
2024/01/05 03:01:16;;;;;;;14.90;13.50;;;0.50;90.40;;;;;;5033544;28;20210;-88
2024/01/05 03:03:45;;;;;;;16.80;13.23;;;0.50;90.40;;;;;;5033476;28;20191;-88
2024/01/05 03:06:11;;;;;;;17.37;12.10;;;0.50;90.50;;;;;;5033488;28;20191;-88
2024/01/05 03:08:37;;;;;;;15.13;12.60;;;0.50;90.30;;;;;;5033442;28;20208;-89
2024/01/05 03:11:02;;;;;;;15.17;13.70;;;0.50;90.40;;;;;;5033510;28;20198;-89
2024/01/05 03:13:28;;;;;;;14.70;12.97;;;0.50;90.40;;;;;;5035295;28;20184;-90
2024/01/05 03:15:53;;;;;;;14.30;11.93;;;0.50;90.40;;;;;;5033462;28;20179;-90
2024/01/05 03:18:19;;;;;;;13.13;11.83;;;0.50;90.50;;;;;;5033867;28;20238;-88
2024/01/05 03:20:44;;;;;;;19.73;13.90;;;0.50;90.40;;;;;;5033627;28;20675;-89
2024/01/05 03:23:10;;;;;;;14.27;12.77;;;0.50;90.40;;;;;;5035656;28;20595;-88
2024/01/05 03:25:35;;;;;;;19.00;14.07;;;0.50;90.50;;;;;;5033866;28;20183;-88
2024/01/05 03:28:01;;;;;;;14.03;12.43;;;0.50;90.50;;;;;;5034712;28;20186;-89
2024/01/05 03:30:26;;;;;;;12.43;10.33;;;0.50;90.50;;;;;;5033564;28;20210;-90
2024/01/05 03:32:52;;;;;;;15.50;12.90;;;0.60;90.50;;;;;;5033241;28;20543;-89
2024/01/05 03:35:17;;;;;;;16.20;13.83;;;0.60;90.50;;;;;;5035065;28;20177;-88
2024/01/05 03:37:43;;;;;;;23.60;21.47;;;0.50;90.50;;;;;;5035197;28;20572;-90
2024/01/05 03:40:09;;;;;;;23.20;21.40;;;0.60;90.60;;;;;;5033407;28;20212;-88
2024/01/05 03:42:34;;;;;;;22.10;20.10;;;0.60;90.50;;;;;;5033225;28;20187;-89
2024/01/05 03:45:00;;;;;;;18.00;12.40;;;0.60;90.50;;;;;;5032994;28;20176;-88
2024/01/05 03:47:25;;;;;;;14.87;13.33;;;0.60;90.60;;;;;;5033042;28;20202;-89
2024/01/05 03:49:51;;;;;;;15.73;12.93;;;0.60;90.70;;;;;;5033504;28;20760;-89
2024/01/05 03:52:16;;;;;;;35.90;19.70;;;0.60;90.70;;;;;;5034269;28;20200;-89
2024/01/05 03:54:42;;;;;;;22.93;21.00;;;0.60;90.70;;;;;;5033358;28;20214;-88
2024/01/05 03:57:07;;;;;;;22.23;20.23;;;0.60;90.70;;;;;;5032791;28;20172;-90
2024/01/05 03:59:33;;;;;;;14.37;12.87;;;0.60;90.70;;;;;;5033003;28;20240;-88
2024/01/05 04:01:58;;;;;;;20.43;13.17;;;0.60;90.80;;;;;;5034559;28;20552;-90
2024/01/05 04:04:24;;;;;;;23.53;21.33;;;0.60;90.80;;;;;;5033159;28;20634;-87
2024/01/05 04:06:51;;;;;;;22.50;20.50;;;0.60;91.00;;;;;;5033016;28;20214;-88
2024/01/05 04:09:16;;;;;;;21.47;19.63;;;0.60;91.00;;;;;;5033252;28;20199;-88
2024/01/05 04:11:42;;;;;;;13.77;12.27;;;0.60;91.10;;;;;;5033488;28;20235;-89
2024/01/05 04:14:08;;;;;;;12.63;10.90;;;0.60;91.20;;;;;;5033102;28;20171;-88
2024/01/05 04:16:34;;;;;;;22.53;20.30;;;0.60;91.40;;;;;;5033670;28;20167;-88
2024/01/05 04:19:00;;;;;;;22.40;20.23;;;0.50;91.50;;;;;;5033131;28;20197;-88
2024/01/05 04:21:26;;;;;;;23.43;20.57;;;0.60;91.60;;;;;;5034407;28;20620;-89
2024/01/05 04:23:55;;;;;;;12.73;11.40;;;0.50;91.80;;;;;;5033802;28;20651;-88
2024/01/05 04:26:21;;;;;;;16.87;12.00;;;0.50;91.90;;;;;;5034119;28;20176;-88
2024/01/05 04:28:46;;;;;;;20.73;18.57;;;0.50;92.00;;;;;;5032961;28;20203;-91
2024/01/05 04:31:12;;;;;;;21.70;19.50;;;0.50;92.20;;;;;;5034705;28;20186;-89
2024/01/05 04:33:37;;;;;;;24.57;21.93;;;0.50;92.30;;;;;;5033065;28;20590;-90
2024/01/05 04:36:03;;;;;;;14.37;11.17;;;0.50;92.40;;;;;;5033375;28;20167;-88
2024/01/05 04:38:29;;;;;;;17.57;13.33;;;0.40;92.50;;;;;;5033213;28;20187;-89
2024/01/05 04:40:55;;;;;;;21.43;19.20;;;0.50;92.60;;;;;;5033720;28;20218;-88
2024/01/05 04:43:20;;;;;;;21.50;19.33;;;0.50;92.80;;;;;;5037506;28;20173;-89
2024/01/05 04:45:46;;;;;;;21.77;19.53;;;0.40;92.80;;;;;;5037881;28;20526;-88
2024/01/05 04:48:12;;;;;;;17.50;14.27;;;0.50;93.00;;;;;;5037085;28;20174;-90
2024/01/05 04:50:38;;;;;;;14.30;10.43;;;0.50;93.10;;;;;;5038465;28;20756;-88
2024/01/05 04:53:03;;;;;;;22.40;20.10;;;0.40;93.10;;;;;;5038277;28;20173;-89
2024/01/05 04:55:29;;;;;;;23.50;19.63;;;0.50;93.20;;;;;;5037160;28;20196;-86
2024/01/05 04:57:54;;;;;;;23.30;20.97;;;0.50;93.20;;;;;;5038571;28;20227;-87
2024/01/05 05:00:20;;;;;;;17.63;12.80;;;0.50;93.20;;;;;;5036719;28;20218;-88
2024/01/05 05:02:45;;;;;;;18.80;13.40;;;0.50;93.20;;;;;;5036751;28;20272;-89
2024/01/05 05:05:11;;;;;;;15.75;13.10;;;0.50;93.20;;;;;;5036566;28;20691;-88
2024/01/05 05:07:37;;;;;;;18.90;13.13;;;0.50;93.20;;;;;;5036865;28;20186;-88
2024/01/05 05:10:02;;;;;;;14.53;11.80;;;0.50;93.20;;;;;;5036767;28;20829;-90
2024/01/05 05:12:28;;;;;;;16.30;12.67;;;0.50;93.10;;;;;;5037520;28;20180;-89
2024/01/05 05:14:54;;;;;;;15.53;11.27;;;0.50;93.10;;;;;;5038046;28;20549;-88
2024/01/05 05:17:19;;;;;;;17.50;11.57;;;0.50;93.10;;;;;;5036418;28;20191;-89
2024/01/05 05:19:46;;;;;;;12.40;11.13;;;0.50;93.00;;;;;;5036353;28;20669;-87
2024/01/05 05:22:11;;;;;;;17.77;13.07;;;0.50;93.00;;;;;;5036244;28;20595;-88
2024/01/05 05:24:37;;;;;;;14.17;11.57;;;0.60;93.00;;;;;;5038047;28;20234;-89
2024/01/05 05:27:02;;;;;;;19.80;12.27;;;0.60;93.00;;;;;;5036363;28;20191;-88
2024/01/05 05:29:28;;;;;;;16.47;12.37;;;0.50;93.00;;;;;;5036689;28;20213;-87
2024/01/05 05:31:53;;;;;;;13.73;12.33;;;0.50;93.00;;;;;;5038263;28;20175;-87
2024/01/05 05:34:19;;;;;;;13.00;10.90;;;0.60;93.00;;;;;;5036745;28;20195;-89
2024/01/05 05:36:45;;;;;;;17.73;12.73;;;0.60;92.90;;;;;;5037033;28;20173;-89
2024/01/05 05:39:10;;;;;;;17.37;12.50;;;0.60;92.90;;;;;;5036281;28;20265;-90
2024/01/05 05:41:36;;;;;;;13.43;12.03;;;0.50;92.90;;;;;;5038154;28;20168;-89
2024/01/05 05:44:03;;;;;;;16.90;12.23;;;0.60;93.00;;;;;;5036833;28;20179;-89
2024/01/05 05:46:29;;;;;;;10.93;9.53;;;0.60;93.00;;;;;;5036913;28;20191;-88
2024/01/05 05:48:54;;;;;;;12.17;10.53;;;0.50;93.00;;;;;;5053731;28;20680;-90
2024/01/05 05:51:20;;;;;;;11.30;9.40;;;0.50;93.00;;;;;;5036639;28;20202;-90
2024/01/05 05:53:45;;;;;;;14.60;10.37;;;0.50;93.00;;;;;;5052654;28;20180;-89
2024/01/05 05:56:11;;;;;;;13.50;11.60;;;0.50;93.10;;;;;;5036926;28;20182;-89
2024/01/05 05:58:36;;;;;;;15.73;11.37;;;0.50;93.10;;;;;;5037355;28;20639;-88
2024/01/05 06:01:02;;;;;;;18.03;12.60;;;0.50;93.30;;;;;;5038141;28;20219;-90
2024/01/05 06:03:27;;;;;;;10.83;9.73;;;0.50;93.20;;;;;;5037696;28;20191;-89
2024/01/05 06:05:52;;;;;;;14.97;12.17;;;0.50;93.20;;;;;;5035392;28;20180;-90
2024/01/05 06:08:18;;;;;;;19.30;10.53;;;0.50;93.20;;;;;;5035591;28;20183;-89
2024/01/05 06:10:43;;;;;;;16.03;9.20;;;0.50;93.30;;;;;;5036075;28;20212;-89
2024/01/05 06:13:09;;;;;;;16.33;11.87;;;0.60;93.30;;;;;;5052923;28;20192;-90
2024/01/05 06:15:34;;;;;;;15.90;12.90;;;0.50;93.30;;;;;;5037765;28;20252;-89
2024/01/05 06:18:00;;;;;;;13.03;10.50;;;0.50;93.30;;;;;;5035363;28;20583;-89
2024/01/05 06:20:25;;;;;;;12.90;10.80;;;0.60;93.30;;;;;;5036360;28;20242;-89
2024/01/05 06:22:51;;;;;;;17.27;15.07;;;0.50;93.30;;;;;;5037140;28;20186;-89
2024/01/05 06:25:17;;;;;;;18.80;16.80;;;0.50;93.30;;;;;;5035879;28;20230;-90
2024/01/05 06:27:42;;;;;;;17.50;11.07;;;0.50;93.40;;;;;;5036046;28;20234;-88
2024/01/05 06:30:09;;;;;;;14.10;11.57;;;0.50;93.40;;;;;;5036206;28;20244;-88
2024/01/05 06:32:35;;;;;;;19.20;17.37;;;0.50;93.30;;;;;;5036291;28;20174;-88
2024/01/05 06:35:01;;;;;;;17.30;15.77;;;0.50;93.30;;;;;;5035704;28;20324;-88
2024/01/05 06:37:29;;;;;;;12.90;10.40;;;0.60;93.30;;;;;;5037351;28;20215;-88
2024/01/05 06:39:54;;;;;;;12.80;9.80;;;0.50;93.30;;;;;;5035339;28;20206;-88
2024/01/05 06:42:20;;;;;;;16.43;12.80;;;0.50;93.40;;;;;;5051839;28;20172;-90
2024/01/05 06:44:45;;;;;;;13.87;12.57;;;0.50;93.40;;;;;;5034865;28;20189;-89
2024/01/05 06:47:11;;;;;;;11.03;8.53;;;0.50;93.40;;;;;;5034839;28;20184;-89
2024/01/05 06:49:36;;;;;;;11.17;9.53;;;0.50;93.40;;;;;;5037535;28;20238;-89
2024/01/05 06:52:02;;;;;;;13.30;10.00;;;0.50;93.30;;;;;;5036104;28;20246;-90
2024/01/05 06:54:27;;;;;;;16.93;15.30;;;0.50;93.20;;;;;;5036077;28;20173;-89
2024/01/05 06:56:53;;;;;;;15.60;14.13;;;0.50;93.30;;;;;;5034627;28;20186;-89
2024/01/05 06:59:18;;;;;;;12.67;10.20;;;0.50;93.20;;;;;;5035531;28;20190;-88
2024/01/05 07:01:44;;;;;;;16.77;9.50;;;0.50;93.20;;;;;;5037252;28;20181;-88
2024/01/05 07:04:09;;;;;;;16.80;14.77;;;0.50;93.20;;;;;;5039555;28;20261;-90
2024/01/05 07:06:39;;;;;;;15.33;14.03;;;0.50;93.20;;;;;;5037698;28;20174;-87
2024/01/05 07:09:05;;;;;;;17.93;16.07;;;0.50;93.30;;;;;;5036127;28;20207;-89
2024/01/05 07:11:30;;;;;;;8.53;7.73;;;0.50;93.30;;;;;;5037077;28;20663;-88
2024/01/05 07:13:56;;;;;;;9.57;8.67;;;0.50;93.30;;;;;;5052602;28;20174;-88
2024/01/05 07:16:22;;;;;;;14.73;10.33;;;0.50;93.30;;;;;;5037702;28;20233;-88
2024/01/05 07:18:48;;;;;;;17.40;15.83;;;0.50;93.20;;;;;;5036930;28;20594;-86
2024/01/05 07:21:15;;;;;;;14.90;13.57;;;0.50;93.20;;;;;;5034993;28;20195;-88
2024/01/05 07:23:41;;;;;;;9.20;8.30;;;0.50;93.30;;;;;;5034568;28;20654;-88
2024/01/05 07:26:06;;;;;;;9.17;8.17;;;0.50;93.30;;;;;;5053027;28;20190;-88
2024/01/05 07:28:32;;;;;;;14.60;13.23;;;0.50;93.30;;;;;;5051810;28;20193;-89
2024/01/05 07:31:02;;;;;;;17.87;16.37;;;0.50;93.30;;;;;;5035232;28;20214;-90
2024/01/05 07:33:27;;;;;;;12.82;10.88;;;0.50;93.30;;;;;;5036956;28;20405;-89
2024/01/05 07:35:53;;;;;;;13.00;11.00;;;0.50;93.20;;;;;;5035367;28;20274;-89
2024/01/05 07:38:18;;;;;;;10.23;9.10;;;0.50;93.10;;;;;;5035705;28;20696;-89
2024/01/05 07:40:44;;;;;;;12.00;10.90;;;0.50;93.00;;;;;;5051500;28;20199;-88
2024/01/05 07:43:12;;;;;;;15.53;11.50;;;0.50;93.00;;;;;;5034905;28;20560;-89
2024/01/05 07:45:38;;;;;;;9.47;8.47;;;0.50;93.10;;;;;;5034934;28;20176;-89
2024/01/05 07:48:04;;;;;;;11.60;9.17;;;0.50;93.10;;;;;;5053086;28;20237;-90
2024/01/05 07:50:31;;;;;;;14.27;13.17;;;0.50;93.00;;;;;;5050595;28;20253;-89
2024/01/05 07:52:57;;;;;;;15.07;13.87;;;0.50;93.00;;;;;;5036165;28;20171;-87
2024/01/05 07:55:22;;;;;;;16.03;14.63;;;0.50;93.10;;;;;;5035519;28;20198;-89
2024/01/05 07:57:48;;;;;;;15.80;14.50;;;0.60;93.10;;;;;;5035021;28;20175;-89
2024/01/05 08:00:14;;;;;;;15.00;13.70;;;0.60;93.10;;;;;;5034200;28;20227;-89
2024/01/05 08:02:39;;;;;;;14.73;13.50;;;0.50;93.00;;;;;;5035503;28;20186;-89
2024/01/05 08:05:07;;;;;;;9.93;8.77;;;0.50;93.10;;;;;;5035508;28;20201;-89
2024/01/05 08:07:32;;;;;;;9.30;8.33;;;0.50;93.10;;;;;;5051126;28;20182;-89
2024/01/05 08:09:57;;;;;;;13.53;12.40;;;0.50;93.10;;;;;;5050700;28;20226;-89
2024/01/05 08:12:23;;;;;;;14.77;13.60;;;0.50;93.00;;;;;;5033772;28;20247;-90
2024/01/05 08:14:49;;;;;;;16.63;14.40;;;0.60;93.00;;;;;;5036287;28;20243;-89
2024/01/05 08:17:14;;;;;;;10.07;8.30;;;0.50;93.00;;;;;;5035944;28;20182;-89
2024/01/05 08:19:40;;;;;;;10.20;7.77;;;0.50;93.00;;;;;;5054285;28;20208;-90
2024/01/05 08:22:05;;;;;;;16.03;14.70;;;0.50;93.00;;;;;;5053784;28;20676;-89
2024/01/05 08:24:31;;;;;;;16.00;14.60;;;0.60;93.00;;;;;;5037772;28;20313;-90
2024/01/05 08:26:56;;;;;;;17.40;16.10;;;0.50;92.90;;;;;;5037513;28;20189;-89
2024/01/05 08:29:22;;;;;;;9.77;8.77;;;0.50;92.80;;;;;;5038277;28;20201;-88
2024/01/05 08:31:51;;;;;;;7.47;6.67;;;0.60;92.80;;;;;;5038998;28;20183;-88
2024/01/05 08:34:17;;;;;;;13.80;12.70;;;0.60;92.70;;;;;;5039549;28;20275;-89
2024/01/05 08:36:42;;;;;;;16.60;15.30;;;0.60;92.70;;;;;;5038591;28;20626;-89
2024/01/05 08:39:08;;;;;;;15.15;14.00;;;0.50;92.60;;;;;;5037043;28;20180;-90
2024/01/05 08:41:33;;;;;;;7.40;6.80;;;0.50;92.50;;;;;;5037654;28;20209;-90
2024/01/05 08:43:59;;;;;;;9.87;8.10;;;0.60;92.50;;;;;;5054594;28;20182;-89
2024/01/05 08:46:28;;;;;;;7.87;7.17;;;0.50;92.40;;;;;;5054915;28;20201;-88
2024/01/05 08:48:53;;;;;;;8.17;7.47;;;0.50;92.30;;;;;;5054418;28;20207;-89
2024/01/05 08:51:19;;;;;;;7.63;6.93;;;0.50;92.30;;;;;;5056097;28;20203;-88
2024/01/05 08:53:45;;;;;;;7.60;6.80;;;0.50;92.20;;;;;;5055554;28;20178;-88
2024/01/05 08:56:10;;;;;;;8.77;7.77;;;0.60;92.30;;;;;;5055713;28;20177;-87
2024/01/05 08:58:36;;;;;;;9.17;6.73;;;0.50;92.20;;;;;;5056806;28;20533;-89
2024/01/05 09:01:02;;;;;;;9.20;8.40;;;0.50;92.10;;;;;;5056818;28;20195;-90
2024/01/05 09:03:28;;;;;;;8.37;7.60;;;0.50;92.20;;;;;;5039171;28;20167;-88
2024/01/05 09:05:53;;;;;;;9.27;8.37;;;0.50;92.30;;;;;;5055637;28;20187;-88
2024/01/05 09:08:19;;;;;;;8.57;7.73;;;0.60;92.30;;;;;;5055701;28;20187;-89
2024/01/05 09:10:45;;;;;;;7.83;7.23;;;0.50;92.30;;;;;;5037751;28;20206;-88
2024/01/05 09:13:10;;;;;;;8.47;7.77;;;0.50;92.20;;;;;;5037720;28;20178;-88
2024/01/05 09:15:36;;;;;;;7.70;7.00;;;0.50;92.10;;;;;;5040115;28;20232;-88
2024/01/05 09:18:02;;;;;;;8.53;7.83;;;0.50;91.90;;;;;;5038200;28;20666;-89
2024/01/05 09:20:28;;;;;;;10.80;9.10;;;0.50;92.00;;;;;;5053247;28;20269;-90
2024/01/05 09:22:53;;;;;;;8.63;7.80;;;0.60;92.00;;;;;;5040002;28;20176;-90
2024/01/05 09:25:19;;;;;;;7.37;6.77;;;0.60;91.90;;;;;;5053748;28;20193;-88
2024/01/05 09:27:45;;;;;;;7.77;6.87;;;0.60;91.80;;;;;;5052805;28;20177;-89
2024/01/05 09:30:10;;;;;;;8.13;7.27;;;0.50;91.70;;;;;;5053287;28;20595;-89
2024/01/05 09:32:36;;;;;;;8.93;8.03;;;0.60;91.60;;;;;;5054555;28;20219;-89
2024/01/05 09:35:02;;;;;;;9.57;8.67;;;0.60;91.60;;;;;;5038115;28;20244;-89
2024/01/05 09:37:28;;;;;;;15.10;13.80;;;0.60;91.50;;;;;;5053851;28;20205;-90
2024/01/05 09:39:53;;;;;;;17.43;15.97;;;0.60;91.60;;;;;;5038275;28;20576;-89
2024/01/05 09:42:19;;;;;;;9.30;8.50;;;0.60;91.50;;;;;;5036322;28;20195;-90
2024/01/05 09:44:46;;;;;;;8.13;7.43;;;0.60;91.50;;;;;;5054305;28;20217;-89
2024/01/05 09:47:13;;;;;;;16.20;14.57;;;0.60;91.40;;;;;;5054112;28;20219;-89
2024/01/05 09:49:44;;;;;;;14.57;13.47;;;0.60;91.40;;;;;;5037373;28;20210;-89
2024/01/05 09:52:12;;;;;;;22.93;12.83;;;0.60;91.60;;;;;;5037266;28;20157;-89
2024/01/05 09:54:38;;;;;;;14.27;13.30;;;0.60;91.40;;;;;;5036856;28;20188;-89
2024/01/05 09:57:05;;;;;;;8.30;7.60;;;0.60;91.40;;;;;;5035148;28;20179;-90
2024/01/05 09:59:34;;;;;;;6.50;6.10;;;0.60;91.10;;;;;;5051060;28;20296;-90
2024/01/05 10:02:04;;;;;;;14.77;13.60;;;0.60;91.00;;;;;;5052688;28;20217;-91
2024/01/05 10:04:30;;;;;;;12.60;11.70;;;0.60;91.00;;;;;;5038179;28;20771;-89
2024/01/05 10:07:00;;;;;;;13.60;12.57;;;0.60;91.00;;;;;;5037785;28;20191;-89
2024/01/05 10:09:27;;;;;;;8.90;8.10;;;0.60;90.80;;;;;;5037490;28;20216;-91
2024/01/05 10:11:52;;;;;;;7.80;7.20;;;0.60;90.90;;;;;;5054067;28;20176;-90
2024/01/05 10:14:25;;;;;;;15.00;13.90;;;0.60;91.00;;;;;;5056329;28;20183;-90
2024/01/05 10:17:06;;;;;;;16.90;15.50;;;0.60;90.90;;;;;;5038957;28;20179;-89
2024/01/05 10:19:32;;;;;;;15.47;14.47;;;0.60;91.00;;;;;;5039533;28;20229;-90
2024/01/05 10:22:08;;;;;;;14.70;13.80;;;0.60;91.00;;;;;;5039462;28;20317;-90
2024/01/05 10:24:34;;;;;;;7.63;7.03;;;0.60;90.80;;;;;;5040998;28;20186;-88
2024/01/05 10:27:04;;;;;;;8.97;8.27;;;0.60;91.00;;;;;;5051003;28;20182;-90
2024/01/05 10:29:30;;;;;;;11.60;10.60;;;0.60;91.10;;;;;;5033420;28;20206;-89
2024/01/05 10:32:16;;;;;;;15.47;14.13;;;0.70;91.10;;;;;;5035207;28;20180;-91
2024/01/05 10:34:44;;;;;;;13.70;12.70;;;0.70;91.10;;;;;;5041310;28;20194;-91
2024/01/05 10:37:10;;;;;;;14.47;13.37;;;0.60;91.20;;;;;;5039886;28;20246;-90
2024/01/05 10:39:36;;;;;;;7.23;6.73;;;0.60;91.20;;;;;;5039443;28;20738;-91
2024/01/05 10:42:19;;;;;;;8.07;7.47;;;0.50;91.30;;;;;;5055918;28;20259;-88
2024/01/05 10:44:45;;;;;;;14.90;13.67;;;0.50;91.40;;;;;;5055298;28;20170;-90
2024/01/05 10:47:15;;;;;;;13.80;12.90;;;0.50;91.60;;;;;;5039637;28;20175;-89
2024/01/05 10:49:51;;;;;;;8.47;7.77;;;0.40;91.60;;;;;;5043564;28;20226;-92
2024/01/05 10:52:18;;;;;;;8.17;7.37;;;0.40;91.60;;;;;;5061415;28;20170;-89
2024/01/05 10:54:45;;;;;;;7.87;7.27;;;0.40;91.60;;;;;;5039937;28;20203;-91
2024/01/05 10:57:15;;;;;;;8.13;7.43;;;0.40;91.70;;;;;;5037795;28;20172;-90
2024/01/05 10:59:48;;;;;;;8.20;7.47;;;0.40;91.90;;;;;;5040443;28;20217;-90
2024/01/05 11:02:21;;;;;;;7.50;6.83;;;0.40;92.00;;;;;;5039938;28;20232;-88
2024/01/05 11:04:56;;;;;;;6.93;6.43;;;0.40;92.10;;;;;;5052957;28;20177;-90
2024/01/05 11:07:23;;;;;;;7.73;7.07;;;0.40;92.20;;;;;;5055044;28;20176;-90
2024/01/05 11:10:15;;;;;;;7.47;6.87;;;0.30;92.20;;;;;;5058264;28;20220;-88
2024/01/05 11:13:05;;;;;;;7.40;6.80;;;0.30;92.20;;;;;;5054199;28;20180;-90
2024/01/05 11:15:57;;;;;;;6.90;6.40;;;0.30;92.20;;;;;;5039089;28;20173;-90
2024/01/05 11:18:44;;;;;;;8.13;7.33;;;0.30;92.10;;;;;;5037903;28;20185;-90
2024/01/05 11:21:22;;;;;;;7.47;6.87;;;0.30;92.20;;;;;;5036666;28;20199;-90
2024/01/05 11:23:49;;;;;;;6.03;5.63;;;0.30;92.10;;;;;;5052355;28;20190;-90
2024/01/05 11:26:35;;;;;;;11.17;10.30;;;0.30;92.10;;;;;;5053038;28;20636;-87
2024/01/05 11:29:04;;;;;;;12.73;11.80;;;0.30;92.20;;;;;;5037766;28;20211;-87
2024/01/05 11:31:51;;;;;;;13.27;12.40;;;0.30;92.30;;;;;;5037653;28;20187;-88
2024/01/05 11:34:29;;;;;;;12.47;11.57;;;0.30;92.30;;;;;;5040811;28;20178;-88
2024/01/05 11:36:55;;;;;;;6.17;5.77;;;0.30;92.30;;;;;;5043037;28;20175;-88
2024/01/05 11:39:41;;;;;;;7.37;6.63;;;0.20;91.90;;;;;;5045044;28;20180;-87
2024/01/05 11:42:07;;;;;;;13.60;12.27;;;0.20;91.90;;;;;;5046511;28;20179;-87
2024/01/05 11:44:34;;;;;;;11.95;10.95;;;0.20;91.80;;;;;;5041212;28;20245;-89
2024/01/05 11:47:01;;;;;;;6.33;5.93;;;0.20;91.80;;;;;;5045588;28;20180;-86
2024/01/05 11:49:41;;;;;;;6.50;5.93;;;0.20;91.80;;;;;;5059456;28;20295;-89
2024/01/05 11:52:07;;;;;;;12.23;11.40;;;0.20;91.80;;;;;;5044514;28;20199;-87
2024/01/05 11:54:33;;;;;;;12.87;12.00;;;0.20;91.90;;;;;;5049556;28;20170;-87
2024/01/05 11:57:00;;;;;;;12.10;11.20;;;0.20;91.90;;;;;;5046415;28;20182;-87
2024/01/05 11:59:25;;;;;;;13.93;12.93;;;0.20;91.90;;;;;;5045927;28;20202;-88
2024/01/05 12:01:53;;;;;;;12.57;11.63;;;0.30;92.10;;;;;;5045369;28;20188;-87
2024/01/05 12:04:19;;;;;;;6.67;6.27;;;0.20;92.10;;;;;;5046890;28;20206;-88
2024/01/05 12:06:52;;;;;;;6.33;5.93;;;0.20;91.90;;;;;;5065854;28;20188;-88
2024/01/05 12:09:18;;;;;;;7.93;7.33;;;0.10;91.70;;;;;;5044414;28;20203;-88
2024/01/05 12:11:44;;;;;;;7.53;7.03;;;0.10;91.60;;;;;;5042820;28;20179;-90
2024/01/05 12:14:10;;;;;;;6.93;6.37;;;0.10;91.80;;;;;;5043316;28;20218;-89
2024/01/05 12:16:35;;;;;;;7.73;7.23;;;0.10;91.70;;;;;;5042613;28;20180;-88
2024/01/05 12:19:01;;;;;;;8.87;8.07;;;0.10;91.70;;;;;;5039383;28;20195;-89
2024/01/05 12:21:27;;;;;;;12.17;11.23;;;0.20;91.80;;;;;;5039352;28;20218;-90
2024/01/05 12:23:55;;;;;;;10.13;9.43;;;0.30;91.80;;;;;;5038572;28;20186;-88
2024/01/05 12:26:20;;;;;;;7.27;6.67;;;0.30;91.70;;;;;;5053445;28;20186;-91
2024/01/05 12:28:47;;;;;;;7.03;6.53;;;0.30;91.50;;;;;;5038028;28;20676;-89
2024/01/05 12:31:13;;;;;;;11.17;10.40;;;0.20;91.20;;;;;;5052626;28;20210;-88
2024/01/05 12:33:40;;;;;;;9.43;8.83;;;0.20;91.20;;;;;;5036649;28;20207;-87
2024/01/05 12:36:12;;;;;;;10.80;9.90;;;0.20;91.20;;;;;;5036476;28;20642;-86
2024/01/05 12:38:38;;;;;;;6.50;6.10;;;0.20;91.40;;;;;;5052238;28;20653;-89
2024/01/05 12:41:08;;;;;;;6.47;6.07;;;0.20;91.40;;;;;;5051861;28;20196;-88